Moreno Valley, CA (92555)

10:46 PM PST on January 29, 2015 (GMT -0800)
Moreno Valley | Change Station
CLOSE
Current Station
Personal Weather Station
Location: Moreno Valley, CA
Elevation: 1572 ft
Nearby Weather Stations

Elev 1572 ft 33.91 °N, 117.24 °W | Updated 1 second ago

Overcast
Overcast
59.1 °F
Feels Like 59.1 °F
N
0.0
Wind Variable Wind from NNE
Gusts 1.0 mph

Today
High -- | Low -- °F
--% Chance of Precip.
Yesterday
High -- | Low -- °F
Precip. -- in
6:47 AM 5:16 PM
Waxing Gibbous, 80% visible
Pressure 30.02 in
Visibility 10.0 miles
Clouds Scattered Clouds 5000 ft
Dew Point 42 °F
Humidity 54%
Rainfall 0.00 in
Snow Depth Not available.
UV 0 out of 12
Pollen 8.00 out of 12
Air Quality Not available.
Flu Activity Not available.
SPECI KRIV 300641Z AUTO 29005KT 10SM -DZ SCT050 14/08 A3002 RMK AO2 DZB41

More Conditions Fewer Conditions

Pressure 30.02 in
Visibility 10.0 miles
Clouds Scattered Clouds 5000 ft
Dew Point 42 °F
Humidity 54%
Rainfall 0.00 in
Snow Depth Not available.
UV 0 out of 12
Pollen 8.00 out of 12
Air Quality Not available.
Flu Activity Not available.
SPECI KRIV 300641Z AUTO 29005KT 10SM -DZ SCT050 14/08 A3002 RMK AO2 DZB41

More Conditions Fewer Conditions

10-Day Weather Forecast

Almanac

Astronomy

Jan. 29, 2015 Rise Set
Actual Time
Civil Twilight
Nautical Twilight
Astronomical Twilight
Moon
Length of Visible Light
Length of Day
Tomorrow will be .
, % of the Moon is Illuminated

Today's Extremes

State Highs State Lows

Community

WunderPhotos

Upload Photos

1,791,724 photos uploaded!

WunderBlogs® & News

Nearby

Air Quality

  Air Quality AQ Index Pollutant
Not available.

Snow Depth

Station Depth Elevation

Earthquake Activity

City Distance Mag. Time & Date
Minimum magnitude displayed is 2.5.

Coastal Water Temperatures

Place Temperature

Nearby Weather Stations